Terminal Aerodrome Forecast
Issued by NWS Duluth, MN

Home | Current Version | Previous Version | Text Only | Print | Product List | Glossary On
Versions: 1 2 3 4 5 6 7 8 9 10 11 12 13 14 15 16 17 18 19 20 21 22 23 24 25 26 27 28 29 30 31 32
000
FTUS43 KDLH 270500
TAFDLH
TAF
KDLH 270528Z 2706/2806 VRB04KT P6SM -SHRA SCT050 BKN090
     FM270800 VRB04KT 5SM BR SCT030 BKN050
      TEMPO 2710/2712 3SM BR BKN030
     FM271400 28006KT P6SM SCT140
     FM272300 VRB03KT P6SM SKC=

USA.gov is the U.S. government's official web portal to all federal, state and local government web resources and services.